createdAt,value
2018-11-02T00:00:15.144Z,99.90
2018-11-02T00:02:44.886Z,99.90
2018-11-02T00:05:12.654Z,99.90
2018-11-02T00:07:41.663Z,99.90
2018-11-02T00:10:09.616Z,99.90
2018-11-02T00:12:37.434Z,99.90
2018-11-02T00:15:05.326Z,99.90
2018-11-02T00:17:32.993Z,99.90
2018-11-02T00:20:00.726Z,99.90
2018-11-02T00:22:28.763Z,99.90
2018-11-02T00:24:56.354Z,99.90
2018-11-02T00:27:24.052Z,99.90
2018-11-02T00:29:52.195Z,99.90
2018-11-02T00:32:19.871Z,99.90
2018-11-02T00:34:48.002Z,99.90
2018-11-02T00:37:15.784Z,99.90
2018-11-02T00:39:43.500Z,99.90
2018-11-02T00:42:11.187Z,99.90
2018-11-02T00:44:38.968Z,99.90
2018-11-02T00:47:12.832Z,99.90
2018-11-02T00:49:40.580Z,99.90
2018-11-02T00:52:08.279Z,99.90
2018-11-02T00:54:36.193Z,99.90
2018-11-02T00:57:04.223Z,99.90
2018-11-02T00:59:32.026Z,99.90
2018-11-02T01:01:59.918Z,99.90
2018-11-02T01:04:27.673Z,99.90
2018-11-02T01:06:55.485Z,99.90
2018-11-02T01:09:23.240Z,99.90
2018-11-02T01:11:51.309Z,99.90
2018-11-02T01:14:19.584Z,99.90
2018-11-02T01:16:47.690Z,99.90
2018-11-02T01:19:15.194Z,99.90
2018-11-02T01:21:43.067Z,99.90
2018-11-02T01:24:10.854Z,99.90
2018-11-02T01:26:38.827Z,99.90
2018-11-02T01:29:06.630Z,99.90
2018-11-02T01:31:34.438Z,99.90
2018-11-02T01:34:02.348Z,99.90
2018-11-02T01:36:30.179Z,99.90
2018-11-02T01:38:58.151Z,99.90
2018-11-02T01:41:25.789Z,99.90
2018-11-02T01:43:53.552Z,99.90
2018-11-02T01:46:21.428Z,99.90
2018-11-02T01:48:49.309Z,99.90
2018-11-02T01:51:17.111Z,99.90
2018-11-02T01:53:44.732Z,99.90
2018-11-02T01:56:12.686Z,99.90
2018-11-02T01:58:40.399Z,99.90
2018-11-02T02:01:08.172Z,99.90
2018-11-02T02:03:36.369Z,99.90
2018-11-02T02:06:04.282Z,99.90
2018-11-02T02:08:33.092Z,99.90
2018-11-02T02:11:00.811Z,99.90
2018-11-02T02:13:28.562Z,99.90
2018-11-02T02:15:56.499Z,99.90
2018-11-02T02:18:24.369Z,99.90
2018-11-02T02:20:52.514Z,99.90
2018-11-02T02:23:20.956Z,99.90
2018-11-02T02:25:49.975Z,99.90
2018-11-02T02:28:18.485Z,99.90
2018-11-02T02:30:46.390Z,99.90
2018-11-02T02:33:14.215Z,99.90
2018-11-02T02:35:42.105Z,99.90
2018-11-02T02:38:09.735Z,99.90
2018-11-02T02:40:37.406Z,99.90
2018-11-02T02:43:05.148Z,99.90
2018-11-02T02:45:33.164Z,99.90
2018-11-02T02:48:01.227Z,99.90
2018-11-02T02:50:29.126Z,99.90
2018-11-02T02:52:56.876Z,99.90
2018-11-02T02:55:24.573Z,99.90
2018-11-02T02:57:52.325Z,99.90
2018-11-02T03:00:20.438Z,99.90
2018-11-02T03:02:48.859Z,99.90
2018-11-02T03:05:16.580Z,99.90
2018-11-02T03:07:45.054Z,99.90
2018-11-02T03:10:13.030Z,99.90
2018-11-02T03:12:40.785Z,99.90
2018-11-02T03:15:08.767Z,99.90
2018-11-02T03:17:36.898Z,99.90
2018-11-02T03:20:06.226Z,99.90
2018-11-02T03:22:34.241Z,99.90
2018-11-02T03:25:02.064Z,99.90
2018-11-02T03:27:29.697Z,99.90
2018-11-02T03:29:57.464Z,99.90
2018-11-02T03:32:25.308Z,99.90
2018-11-02T03:34:52.894Z,99.90
2018-11-02T03:37:20.553Z,99.90
2018-11-02T03:39:48.455Z,99.90
2018-11-02T03:42:16.117Z,99.90
2018-11-02T03:44:43.791Z,99.90
2018-11-02T03:47:11.611Z,99.90
2018-11-02T03:49:39.402Z,99.90
2018-11-02T03:52:07.547Z,99.90
2018-11-02T03:54:35.353Z,99.90
2018-11-02T03:57:03.114Z,99.90
2018-11-02T03:59:30.934Z,99.90
2018-11-02T04:01:58.598Z,99.90
2018-11-02T04:04:26.428Z,99.90
2018-11-02T04:06:54.135Z,99.90
2018-11-02T04:09:21.883Z,99.90
2018-11-02T04:11:49.600Z,99.90
2018-11-02T04:14:17.251Z,99.90
2018-11-02T04:16:45.341Z,99.90
2018-11-02T04:19:13.269Z,99.90
2018-11-02T04:21:47.183Z,99.90
2018-11-02T04:24:14.961Z,99.90
2018-11-02T04:26:43.104Z,99.90
2018-11-02T04:29:12.263Z,99.90
2018-11-02T04:31:40.449Z,99.90
2018-11-02T04:34:08.408Z,99.90
2018-11-02T04:36:36.124Z,99.90
2018-11-02T04:39:06.847Z,99.90
2018-11-02T04:41:34.785Z,99.90
2018-11-02T04:44:02.510Z,99.90
2018-11-02T04:46:30.321Z,99.90
2018-11-02T04:48:58.279Z,99.90
2018-11-02T04:51:25.918Z,99.90
2018-11-02T04:53:54.478Z,99.90
2018-11-02T04:56:22.855Z,99.90
2018-11-02T04:58:50.821Z,99.90
2018-11-02T05:01:18.581Z,99.90
2018-11-02T05:03:46.585Z,99.90
2018-11-02T05:06:14.309Z,99.90
2018-11-02T05:08:42.438Z,99.90
2018-11-02T05:11:10.082Z,99.90
2018-11-02T05:13:38.872Z,99.90
2018-11-02T05:16:06.999Z,99.90
2018-11-02T05:18:34.967Z,99.90
2018-11-02T05:21:02.605Z,99.90
2018-11-02T05:23:30.214Z,99.90
2018-11-02T05:25:58.170Z,99.90
2018-11-02T05:28:26.023Z,99.90
2018-11-02T05:30:53.933Z,99.90
2018-11-02T05:33:21.860Z,99.90
2018-11-02T05:35:50.101Z,99.90
2018-11-02T05:38:18.014Z,99.90
2018-11-02T05:40:45.802Z,99.90
2018-11-02T05:43:15.025Z,99.90
2018-11-02T05:45:43.844Z,99.90
2018-11-02T05:48:11.490Z,99.90
2018-11-02T05:50:39.091Z,99.90
2018-11-02T05:53:06.848Z,99.90
2018-11-02T05:55:34.690Z,99.90
2018-11-02T05:58:02.424Z,99.90
2018-11-02T06:00:30.732Z,99.90
2018-11-02T06:02:58.823Z,99.90
2018-11-02T06:05:26.699Z,99.90
2018-11-02T06:07:54.959Z,99.90
2018-11-02T06:10:23.502Z,99.90
2018-11-02T06:12:51.982Z,99.90
2018-11-02T06:15:20.998Z,99.90
2018-11-02T06:17:50.003Z,99.90
2018-11-02T06:20:17.942Z,99.90
2018-11-02T06:22:45.795Z,99.90
2018-11-02T06:25:13.508Z,99.90
2018-11-02T06:27:41.317Z,99.90
2018-11-02T06:30:09.786Z,99.90
2018-11-02T06:32:37.650Z,99.90
2018-11-02T06:35:06.518Z,99.90
2018-11-02T06:37:34.487Z,99.90
2018-11-02T06:40:03.690Z,99.90
2018-11-02T06:42:31.583Z,99.90
2018-11-02T06:44:59.419Z,99.90
2018-11-02T06:47:28.312Z,99.90
2018-11-02T06:49:56.600Z,99.90
2018-11-02T06:52:24.320Z,99.90
2018-11-02T06:54:52.208Z,99.90
2018-11-02T06:57:20.043Z,99.90
2018-11-02T06:59:48.059Z,99.90
2018-11-02T07:02:15.676Z,99.90
2018-11-02T07:04:44.883Z,99.90
2018-11-02T07:07:12.965Z,99.90
2018-11-02T07:09:41.237Z,99.90
2018-11-02T07:12:09.080Z,99.90
2018-11-02T07:14:37.129Z,99.90
2018-11-02T07:17:05.227Z,99.90
2018-11-02T07:19:33.208Z,99.90
2018-11-02T07:22:01.253Z,99.90
2018-11-02T07:24:29.048Z,99.90
2018-11-02T07:26:56.806Z,99.90
2018-11-02T07:29:24.756Z,99.90
2018-11-02T07:31:52.846Z,99.90
2018-11-02T07:34:20.767Z,99.90
2018-11-02T07:36:48.808Z,99.90
2018-11-02T07:39:16.763Z,99.90
2018-11-02T07:41:44.415Z,99.90
2018-11-02T07:44:13.549Z,99.90
2018-11-02T07:46:41.647Z,99.90
2018-11-02T07:49:09.506Z,99.90
2018-11-02T07:51:37.736Z,99.90
2018-11-02T07:54:06.361Z,99.90
2018-11-02T07:56:35.859Z,99.90
2018-11-02T07:59:03.994Z,99.90
2018-11-02T08:01:33.245Z,99.90
2018-11-02T08:04:01.068Z,99.90
2018-11-02T08:06:28.827Z,99.90
2018-11-02T08:08:56.860Z,99.90
2018-11-02T08:11:26.802Z,99.90
2018-11-02T08:13:54.756Z,99.90
2018-11-02T08:16:22.486Z,99.90
2018-11-02T08:18:50.636Z,99.90
2018-11-02T08:21:18.324Z,99.90
2018-11-02T08:23:46.444Z,99.90
2018-11-02T08:26:14.370Z,99.90
2018-11-02T08:28:42.072Z,99.90
2018-11-02T08:31:09.996Z,99.90
2018-11-02T08:33:37.810Z,99.90
2018-11-02T08:36:06.288Z,99.90
2018-11-02T08:38:34.296Z,99.90
2018-11-02T08:41:02.327Z,99.90
2018-11-02T08:43:30.065Z,99.90
2018-11-02T08:45:58.380Z,99.90
2018-11-02T08:48:26.307Z,99.90
2018-11-02T08:50:54.152Z,99.90
2018-11-02T08:53:25.063Z,99.90
2018-11-02T08:55:52.728Z,99.90
2018-11-02T08:58:20.804Z,99.90
2018-11-02T09:00:48.740Z,99.90
2018-11-02T09:03:16.675Z,99.90
2018-11-02T09:05:44.420Z,99.90
2018-11-02T09:08:12.410Z,99.90
2018-11-02T09:10:40.875Z,99.90
2018-11-02T09:13:09.272Z,99.90
2018-11-02T09:15:37.146Z,99.90
2018-11-02T09:18:06.464Z,99.90
2018-11-02T09:20:34.450Z,99.90
2018-11-02T09:23:02.289Z,99.90
2018-11-02T09:25:30.004Z,99.90
2018-11-02T09:27:57.881Z,99.90
2018-11-02T09:30:25.932Z,99.90
2018-11-02T09:32:53.974Z,99.90
2018-11-02T09:35:21.773Z,99.90
2018-11-02T09:37:50.526Z,99.90
2018-11-02T09:40:18.385Z,99.90
2018-11-02T09:42:46.287Z,99.90
2018-11-02T09:45:14.486Z,99.90
2018-11-02T09:47:42.952Z,99.90
2018-11-02T09:50:11.744Z,99.90
2018-11-02T09:52:39.594Z,99.90
2018-11-02T09:55:09.059Z,99.90
2018-11-02T09:57:36.895Z,99.90
2018-11-02T10:00:05.833Z,99.90
2018-11-02T10:02:33.716Z,99.90
2018-11-02T10:05:01.552Z,99.90
2018-11-02T10:07:29.541Z,99.90
2018-11-02T10:09:57.521Z,99.90
2018-11-02T10:12:25.447Z,99.90
2018-11-02T10:14:53.636Z,99.90
2018-11-02T10:17:21.511Z,99.90
2018-11-02T10:19:49.377Z,99.90
2018-11-02T10:22:17.230Z,99.90
2018-11-02T10:24:45.355Z,99.90
2018-11-02T10:27:13.737Z,99.90
2018-11-02T10:29:41.634Z,99.90
2018-11-02T10:32:09.629Z,99.90
2018-11-02T10:34:37.849Z,99.90
2018-11-02T10:37:06.115Z,99.90
2018-11-02T10:39:34.350Z,99.90
2018-11-02T10:42:04.854Z,99.90
2018-11-02T10:44:34.691Z,99.90
2018-11-02T10:47:03.974Z,99.90
2018-11-02T10:49:32.152Z,99.90
2018-11-02T10:52:00.029Z,99.90
2018-11-02T10:54:28.158Z,99.90
2018-11-02T10:56:56.083Z,99.90
2018-11-02T10:59:23.937Z,99.90
2018-11-02T11:02:13.874Z,99.90
2018-11-02T11:04:41.751Z,99.90
2018-11-02T11:07:09.756Z,99.90
2018-11-02T11:09:37.953Z,99.90
2018-11-02T11:12:06.047Z,99.70
2018-11-02T11:14:34.268Z,99.60
2018-11-02T11:17:02.017Z,99.40
2018-11-02T11:19:30.045Z,99.20
2018-11-02T11:21:57.814Z,99.10
2018-11-02T11:24:25.748Z,98.80
2018-11-02T11:26:53.734Z,98.70
2018-11-02T11:29:21.568Z,98.10
2018-11-02T11:31:49.346Z,97.60
2018-11-02T11:34:17.680Z,96.90
2018-11-02T11:36:45.465Z,97.10
2018-11-02T11:39:13.984Z,97.00
2018-11-02T11:41:41.786Z,96.70
2018-11-02T11:44:10.135Z,96.00
2018-11-02T11:46:37.883Z,96.40
2018-11-02T11:49:06.264Z,96.70
2018-11-02T11:51:33.959Z,96.50
2018-11-02T11:54:01.695Z,96.50
2018-11-02T11:56:29.536Z,96.50
2018-11-02T11:58:57.319Z,96.50
2018-11-02T12:01:26.539Z,96.60
2018-11-02T12:03:54.486Z,96.70
2018-11-02T12:06:22.191Z,96.80
2018-11-02T12:08:50.071Z,96.70
2018-11-02T12:11:17.798Z,96.60
2018-11-02T12:13:45.982Z,95.20
2018-11-02T12:16:13.739Z,95.30
2018-11-02T12:18:41.757Z,95.40
2018-11-02T12:21:09.569Z,95.30
2018-11-02T12:23:37.331Z,95.00
2018-11-02T12:26:05.016Z,94.00
2018-11-02T12:28:33.248Z,94.00
2018-11-02T12:31:00.988Z,94.60
2018-11-02T12:33:29.173Z,94.40
2018-11-02T12:35:57.825Z,93.00
2018-11-02T12:38:25.650Z,93.40
2018-11-02T12:40:53.320Z,93.40
2018-11-02T12:43:21.263Z,93.60
2018-11-02T12:45:48.989Z,93.70
2018-11-02T12:48:16.903Z,92.30
2018-11-02T12:50:44.747Z,90.40
2018-11-02T12:53:12.510Z,90.60
2018-11-02T12:55:40.305Z,90.50
2018-11-02T12:58:08.258Z,90.40
2018-11-02T13:00:36.111Z,90.50
2018-11-02T13:03:04.200Z,90.30
2018-11-02T13:05:31.946Z,90.40
2018-11-02T13:07:59.882Z,90.10
2018-11-02T13:10:28.027Z,89.60
2018-11-02T13:12:55.779Z,88.90
2018-11-02T13:15:24.184Z,88.40
2018-11-02T13:17:52.214Z,87.50
2018-11-02T13:20:20.559Z,86.50
2018-11-02T13:22:49.471Z,86.80
2018-11-02T13:25:18.692Z,86.90
2018-11-02T13:27:47.901Z,87.00
2018-11-02T13:30:15.937Z,85.90
2018-11-02T13:32:43.830Z,84.70
2018-11-02T13:35:16.435Z,84.60
2018-11-02T13:37:44.563Z,84.50
2018-11-02T13:40:13.469Z,83.80
2018-11-02T13:42:41.481Z,83.20
2018-11-02T13:45:10.680Z,83.10
2018-11-02T13:47:39.176Z,83.10
2018-11-02T13:50:07.565Z,83.10
2018-11-02T13:52:35.282Z,82.70
2018-11-02T13:55:03.413Z,83.60
2018-11-02T13:57:31.768Z,84.00
2018-11-02T13:59:59.847Z,84.70
2018-11-02T14:02:27.520Z,85.00
2018-11-02T14:04:55.368Z,85.10
2018-11-02T14:07:23.491Z,85.10
2018-11-02T14:09:51.800Z,85.20
2018-11-02T14:12:19.983Z,85.00
2018-11-02T14:14:47.913Z,84.70
2018-11-02T14:17:15.752Z,84.00
2018-11-02T14:19:43.784Z,84.10
2018-11-02T14:22:11.600Z,83.90
2018-11-02T14:24:39.781Z,82.60
2018-11-02T14:27:08.138Z,82.70
2018-11-02T14:29:35.930Z,83.20
2018-11-02T14:32:04.622Z,83.30
2018-11-02T14:34:32.585Z,83.80
2018-11-02T14:37:00.745Z,84.10
2018-11-02T14:39:28.817Z,83.70
2018-11-02T14:41:56.928Z,82.90
2018-11-02T14:44:24.795Z,83.00
2018-11-02T14:46:53.005Z,82.80
2018-11-02T14:49:20.891Z,82.60
2018-11-02T14:51:49.313Z,82.60
2018-11-02T14:54:17.035Z,82.60
2018-11-02T14:56:45.182Z,82.70
2018-11-02T14:59:13.054Z,83.10
2018-11-02T15:01:40.818Z,83.20
2018-11-02T15:04:09.456Z,83.20
2018-11-02T15:06:37.542Z,83.80
2018-11-02T15:09:08.894Z,84.00
2018-11-02T15:11:36.927Z,84.00
2018-11-02T15:14:05.565Z,83.90
2018-11-02T15:16:33.578Z,83.60
2018-11-02T15:19:01.507Z,83.00
2018-11-02T15:21:29.022Z,83.00
2018-11-02T15:23:56.867Z,83.20
2018-11-02T15:26:24.864Z,83.60
2018-11-02T15:28:52.534Z,83.80
2018-11-02T15:31:20.582Z,83.90
2018-11-02T15:33:48.589Z,84.10
2018-11-02T15:36:17.428Z,84.40
2018-11-02T15:38:45.408Z,84.70
2018-11-02T15:41:13.033Z,84.80
2018-11-02T15:43:40.751Z,85.00
2018-11-02T15:46:08.912Z,85.30
2018-11-02T15:48:37.038Z,85.50
2018-11-02T15:51:04.838Z,85.80
2018-11-02T15:53:32.728Z,86.10
2018-11-02T15:56:00.785Z,86.30
2018-11-02T15:58:28.633Z,86.40
2018-11-02T16:00:56.996Z,86.50
2018-11-02T16:03:25.186Z,86.70
2018-11-02T16:05:53.196Z,86.90
2018-11-02T16:08:21.315Z,87.10
2018-11-02T16:10:49.079Z,87.10
2018-11-02T16:13:16.930Z,87.90
2018-11-02T16:15:44.756Z,87.20
2018-11-02T16:18:12.607Z,87.20
2018-11-02T16:20:40.638Z,87.20
2018-11-02T16:23:08.522Z,87.40
2018-11-02T16:25:36.490Z,87.60
2018-11-02T16:28:04.556Z,87.50
2018-11-02T16:30:32.346Z,87.40
2018-11-02T16:33:00.724Z,87.50
2018-11-02T16:35:28.790Z,87.30
2018-11-02T16:37:56.786Z,87.30
2018-11-02T16:40:24.831Z,87.50
2018-11-02T16:42:52.971Z,87.60
2018-11-02T16:45:20.837Z,87.40
2018-11-02T16:47:48.756Z,87.50
2018-11-02T16:50:16.488Z,87.50
2018-11-02T16:52:44.744Z,87.80
2018-11-02T16:55:12.414Z,87.90
2018-11-02T16:57:40.987Z,87.90
2018-11-02T17:00:15.012Z,87.80
2018-11-02T17:02:43.902Z,87.60
2018-11-02T17:05:11.541Z,88.60
2018-11-02T17:07:40.239Z,88.20
2018-11-02T17:10:09.479Z,88.60
2018-11-02T17:12:38.673Z,89.10
2018-11-02T17:15:07.102Z,89.40
2018-11-02T17:17:35.512Z,89.80
2018-11-02T17:20:04.217Z,89.90
2018-11-02T17:22:32.187Z,89.80
2018-11-02T17:24:59.988Z,89.90
2018-11-02T17:27:27.677Z,90.00
2018-11-02T17:29:55.337Z,90.10
2018-11-02T17:32:23.190Z,90.20
2018-11-02T17:34:50.983Z,90.20
2018-11-02T17:37:19.055Z,90.20
2018-11-02T17:39:47.012Z,90.30
2018-11-02T17:42:14.904Z,90.20
2018-11-02T17:44:42.982Z,90.30
2018-11-02T17:47:10.856Z,90.60
2018-11-02T17:49:38.493Z,90.60
2018-11-02T17:52:06.133Z,90.60
2018-11-02T17:54:33.957Z,90.60
2018-11-02T17:57:01.642Z,90.70
2018-11-02T17:59:29.544Z,90.80
2018-11-02T18:01:57.494Z,90.80
2018-11-02T18:04:25.271Z,90.60
2018-11-02T18:06:53.022Z,90.50
2018-11-02T18:09:20.720Z,90.40
2018-11-02T18:11:49.026Z,90.50
2018-11-02T18:14:16.941Z,90.70
2018-11-02T18:16:44.664Z,90.60
2018-11-02T18:19:12.759Z,90.70
2018-11-02T18:21:40.486Z,90.70
2018-11-02T18:24:08.138Z,90.70
2018-11-02T18:26:35.956Z,90.70
2018-11-02T18:29:03.781Z,90.70
2018-11-02T18:31:31.621Z,90.70
2018-11-02T18:33:59.431Z,90.60
2018-11-02T18:36:27.096Z,90.60
2018-11-02T18:38:54.815Z,90.70
2018-11-02T18:41:22.814Z,90.60
2018-11-02T18:43:51.201Z,90.50
2018-11-02T18:46:19.081Z,90.60
2018-11-02T18:48:46.729Z,90.60
2018-11-02T18:51:14.524Z,90.70
2018-11-02T18:53:42.161Z,90.70
2018-11-02T18:56:10.073Z,90.70
2018-11-02T18:58:38.090Z,90.80
2018-11-02T19:01:05.983Z,91.00
2018-11-02T19:03:34.228Z,90.90
2018-11-02T19:06:05.856Z,90.90
2018-11-02T19:08:33.957Z,90.80
2018-11-02T19:11:02.887Z,90.80
2018-11-02T19:13:30.867Z,90.90
2018-11-02T19:15:58.505Z,90.90
2018-11-02T19:18:26.330Z,90.80
2018-11-02T19:20:54.938Z,90.70
2018-11-02T19:23:23.358Z,90.70
2018-11-02T19:25:51.821Z,90.60
2018-11-02T19:28:20.305Z,90.50
2018-11-02T19:30:48.298Z,90.50
2018-11-02T19:33:16.154Z,90.60
2018-11-02T19:35:45.023Z,90.70
2018-11-02T19:38:13.082Z,90.70
2018-11-02T19:40:40.595Z,90.80
2018-11-02T19:43:08.448Z,91.10
2018-11-02T19:45:36.201Z,90.80
2018-11-02T19:48:04.986Z,90.90
2018-11-02T19:50:33.033Z,90.80
2018-11-02T19:53:00.691Z,90.90
2018-11-02T19:55:28.739Z,90.80
2018-11-02T19:57:56.464Z,90.70
2018-11-02T20:00:24.501Z,91.00
2018-11-02T20:02:52.152Z,91.00
2018-11-02T20:05:20.621Z,91.00
2018-11-02T20:07:48.370Z,91.00
2018-11-02T20:10:17.065Z,91.00
2018-11-02T20:12:45.471Z,91.20
2018-11-02T20:15:13.915Z,91.30
2018-11-02T20:17:41.984Z,91.20
2018-11-02T20:20:11.248Z,91.10
2018-11-02T20:22:39.000Z,91.30
2018-11-02T20:25:08.594Z,91.40
2018-11-02T20:27:36.717Z,91.40
2018-11-02T20:30:10.649Z,91.30
2018-11-02T20:32:38.622Z,91.40
2018-11-02T20:35:07.216Z,91.30
2018-11-02T20:37:35.510Z,91.00
2018-11-02T20:40:04.315Z,91.10
2018-11-02T20:42:32.441Z,91.20
2018-11-02T20:45:00.655Z,90.90
2018-11-02T20:47:33.728Z,90.70
2018-11-02T20:50:01.847Z,90.70
2018-11-02T20:52:29.532Z,90.70
2018-11-02T20:54:57.603Z,90.90
2018-11-02T20:57:25.446Z,91.10
2018-11-02T20:59:53.363Z,90.80
2018-11-02T21:02:21.082Z,90.60
2018-11-02T21:04:49.158Z,90.60
2018-11-02T21:07:16.954Z,90.80
2018-11-02T21:09:45.375Z,90.80
2018-11-02T21:12:13.136Z,90.70
2018-11-02T21:14:41.079Z,91.00
2018-11-02T21:17:09.336Z,90.60
2018-11-02T21:19:37.322Z,90.60
2018-11-02T21:22:08.979Z,90.70
2018-11-02T21:24:37.471Z,90.80
2018-11-02T21:27:06.597Z,90.80
2018-11-02T21:29:34.475Z,91.00
2018-11-02T21:32:02.334Z,91.20
2018-11-02T21:34:30.177Z,91.50
2018-11-02T21:36:57.940Z,91.40
2018-11-02T21:39:25.580Z,90.90
2018-11-02T21:41:53.543Z,90.80
2018-11-02T21:44:21.420Z,90.70
2018-11-02T21:46:49.616Z,90.60
2018-11-02T21:49:17.326Z,90.60
2018-11-02T21:51:44.954Z,90.60
2018-11-02T21:54:12.812Z,90.80
2018-11-02T21:56:40.499Z,91.00
2018-11-02T21:59:08.103Z,90.90
2018-11-02T22:01:36.184Z,90.60
2018-11-02T22:04:04.893Z,90.50
2018-11-02T22:06:32.817Z,90.50
2018-11-02T22:09:00.651Z,90.40
2018-11-02T22:11:29.392Z,90.70
2018-11-02T22:13:56.969Z,90.30
2018-11-02T22:16:24.657Z,90.20
2018-11-02T22:18:52.542Z,90.30
2018-11-02T22:21:20.253Z,90.10
2018-11-02T22:23:48.003Z,90.10
2018-11-02T22:26:15.803Z,90.10
2018-11-02T22:28:43.642Z,90.00
2018-11-02T22:31:11.358Z,90.00
2018-11-02T22:33:39.172Z,90.10
2018-11-02T22:36:06.853Z,90.10
2018-11-02T22:38:34.591Z,90.40
2018-11-02T22:41:02.632Z,90.10
2018-11-02T22:43:30.299Z,90.20
2018-11-02T22:45:57.934Z,90.20
2018-11-02T22:48:25.915Z,90.20
2018-11-02T22:50:55.317Z,90.20
2018-11-02T22:53:23.700Z,90.20
2018-11-02T22:55:51.744Z,90.20
2018-11-02T22:58:19.498Z,90.10
2018-11-02T23:00:52.948Z,90.10
2018-11-02T23:03:20.753Z,90.00
2018-11-02T23:05:48.741Z,89.90
2018-11-02T23:08:16.523Z,90.00
2018-11-02T23:10:44.340Z,90.00
2018-11-02T23:13:12.225Z,89.90
2018-11-02T23:15:40.121Z,89.90
2018-11-02T23:18:07.820Z,89.80
2018-11-02T23:20:35.552Z,89.80
2018-11-02T23:23:03.334Z,89.90
2018-11-02T23:25:31.031Z,89.70
2018-11-02T23:27:58.732Z,89.70
2018-11-02T23:30:26.270Z,89.50
2018-11-02T23:32:53.803Z,89.50
2018-11-02T23:35:21.402Z,89.70
2018-11-02T23:37:49.034Z,89.70
2018-11-02T23:40:16.757Z,89.80
2018-11-02T23:42:44.468Z,89.50
2018-11-02T23:45:12.285Z,89.40
2018-11-02T23:47:44.763Z,89.50
2018-11-02T23:50:12.421Z,89.50
2018-11-02T23:52:40.538Z,89.60
2018-11-02T23:55:08.645Z,89.40
2018-11-02T23:57:36.413Z,89.80
